sensor_id;sensor_type;location;lat;lon;timestamp;temperature;humidity
76613;DHT22;65507;48.454;-2.058;2023-10-08T00:01:18;16.50;65.40
76613;DHT22;65507;48.454;-2.058;2023-10-08T00:03:44;16.50;65.50
76613;DHT22;65507;48.454;-2.058;2023-10-08T00:06:23;16.50;65.40
76613;DHT22;65507;48.454;-2.058;2023-10-08T00:08:49;16.50;65.40
76613;DHT22;65507;48.454;-2.058;2023-10-08T00:11:15;16.50;65.30
76613;DHT22;65507;48.454;-2.058;2023-10-08T00:13:41;16.50;65.40
76613;DHT22;65507;48.454;-2.058;2023-10-08T00:16:07;16.50;65.20
76613;DHT22;65507;48.454;-2.058;2023-10-08T00:18:36;16.50;65.20
76613;DHT22;65507;48.454;-2.058;2023-10-08T00:21:05;16.50;65.10
76613;DHT22;65507;48.454;-2.058;2023-10-08T00:23:37;16.50;65.00
76613;DHT22;65507;48.454;-2.058;2023-10-08T00:26:07;16.60;65.10
76613;DHT22;65507;48.454;-2.058;2023-10-08T00:28:34;16.60;65.00
76613;DHT22;65507;48.454;-2.058;2023-10-08T00:31:03;16.60;64.90
76613;DHT22;65507;48.454;-2.058;2023-10-08T00:33:36;16.60;64.90
76613;DHT22;65507;48.454;-2.058;2023-10-08T00:36:02;16.60;64.90
76613;DHT22;65507;48.454;-2.058;2023-10-08T00:38:42;16.60;64.70
76613;DHT22;65507;48.454;-2.058;2023-10-08T00:41:13;16.60;64.70
76613;DHT22;65507;48.454;-2.058;2023-10-08T00:43:39;16.70;64.70
76613;DHT22;65507;48.454;-2.058;2023-10-08T00:46:06;16.70;64.70
76613;DHT22;65507;48.454;-2.058;2023-10-08T00:48:38;16.70;64.60
76613;DHT22;65507;48.454;-2.058;2023-10-08T00:51:05;15.30;63.80
76613;DHT22;65507;48.454;-2.058;2023-10-08T00:54:00;16.70;64.60
76613;DHT22;65507;48.454;-2.058;2023-10-08T00:56:31;16.70;64.50
76613;DHT22;65507;48.454;-2.058;2023-10-08T00:59:22;16.70;64.70
76613;DHT22;65507;48.454;-2.058;2023-10-08T01:01:49;16.70;64.60
76613;DHT22;65507;48.454;-2.058;2023-10-08T01:04:24;16.70;64.60
76613;DHT22;65507;48.454;-2.058;2023-10-08T01:06:54;16.70;64.70
76613;DHT22;65507;48.454;-2.058;2023-10-08T01:09:21;16.60;64.70
76613;DHT22;65507;48.454;-2.058;2023-10-08T01:12:07;16.60;64.80
76613;DHT22;65507;48.454;-2.058;2023-10-08T01:14:32;16.50;64.90
76613;DHT22;65507;48.454;-2.058;2023-10-08T01:16:58;16.50;65.10
76613;DHT22;65507;48.454;-2.058;2023-10-08T01:19:25;16.40;65.20
76613;DHT22;65507;48.454;-2.058;2023-10-08T01:21:52;16.40;65.40
76613;DHT22;65507;48.454;-2.058;2023-10-08T01:24:17;16.30;65.50
76613;DHT22;65507;48.454;-2.058;2023-10-08T01:26:45;16.30;65.60
76613;DHT22;65507;48.454;-2.058;2023-10-08T01:29:11;16.30;65.70
76613;DHT22;65507;48.454;-2.058;2023-10-08T01:31:45;16.20;65.70
76613;DHT22;65507;48.454;-2.058;2023-10-08T01:34:11;16.10;65.70
76613;DHT22;65507;48.454;-2.058;2023-10-08T01:36:41;16.10;65.80
76613;DHT22;65507;48.454;-2.058;2023-10-08T01:39:09;16.00;65.80
76613;DHT22;65507;48.454;-2.058;2023-10-08T01:41:42;16.00;66.00
76613;DHT22;65507;48.454;-2.058;2023-10-08T01:44:07;15.90;66.00
76613;DHT22;65507;48.454;-2.058;2023-10-08T01:46:33;15.90;66.10
76613;DHT22;65507;48.454;-2.058;2023-10-08T01:49:00;15.90;66.30
76613;DHT22;65507;48.454;-2.058;2023-10-08T01:51:30;15.80;66.30
76613;DHT22;65507;48.454;-2.058;2023-10-08T01:54:09;15.80;66.20
76613;DHT22;65507;48.454;-2.058;2023-10-08T01:56:39;15.70;66.20
76613;DHT22;65507;48.454;-2.058;2023-10-08T01:59:07;15.70;66.10
76613;DHT22;65507;48.454;-2.058;2023-10-08T02:01:34;15.60;66.20
76613;DHT22;65507;48.454;-2.058;2023-10-08T02:03:59;15.60;66.30
76613;DHT22;65507;48.454;-2.058;2023-10-08T02:06:25;15.60;66.40
76613;DHT22;65507;48.454;-2.058;2023-10-08T02:08:50;15.50;66.40
76613;DHT22;65507;48.454;-2.058;2023-10-08T02:11:16;15.50;66.50
76613;DHT22;65507;48.454;-2.058;2023-10-08T02:13:42;15.40;66.50
76613;DHT22;65507;48.454;-2.058;2023-10-08T02:16:07;15.40;66.60
76613;DHT22;65507;48.454;-2.058;2023-10-08T02:18:33;15.30;66.60
76613;DHT22;65507;48.454;-2.058;2023-10-08T02:20:58;15.30;66.60
76613;DHT22;65507;48.454;-2.058;2023-10-08T02:23:24;15.30;66.70
76613;DHT22;65507;48.454;-2.058;2023-10-08T02:25:50;15.30;66.70
76613;DHT22;65507;48.454;-2.058;2023-10-08T02:28:15;15.20;66.60
76613;DHT22;65507;48.454;-2.058;2023-10-08T02:30:41;15.20;66.60
76613;DHT22;65507;48.454;-2.058;2023-10-08T02:33:07;15.20;66.50
76613;DHT22;65507;48.454;-2.058;2023-10-08T02:35:40;15.20;66.50
76613;DHT22;65507;48.454;-2.058;2023-10-08T02:38:08;15.20;66.50
76613;DHT22;65507;48.454;-2.058;2023-10-08T02:40:36;15.20;66.40
76613;DHT22;65507;48.454;-2.058;2023-10-08T02:43:03;15.30;66.50
76613;DHT22;65507;48.454;-2.058;2023-10-08T02:45:31;15.30;66.40
76613;DHT22;65507;48.454;-2.058;2023-10-08T02:47:57;15.30;66.40
76613;DHT22;65507;48.454;-2.058;2023-10-08T02:50:22;15.30;66.30
76613;DHT22;65507;48.454;-2.058;2023-10-08T02:52:51;15.30;66.20
76613;DHT22;65507;48.454;-2.058;2023-10-08T02:55:17;13.30;65.10
76613;DHT22;65507;48.454;-2.058;2023-10-08T02:58:10;15.30;66.10
76613;DHT22;65507;48.454;-2.058;2023-10-08T03:00:43;15.30;66.00
76613;DHT22;65507;48.454;-2.058;2023-10-08T03:03:09;15.30;66.00
76613;DHT22;65507;48.454;-2.058;2023-10-08T03:05:51;15.40;66.10
76613;DHT22;65507;48.454;-2.058;2023-10-08T03:08:17;15.40;66.00
76613;DHT22;65507;48.454;-2.058;2023-10-08T03:10:49;15.40;65.90
76613;DHT22;65507;48.454;-2.058;2023-10-08T03:13:16;15.40;65.90
76613;DHT22;65507;48.454;-2.058;2023-10-08T03:15:42;15.40;65.90
76613;DHT22;65507;48.454;-2.058;2023-10-08T03:18:33;15.40;65.80
76613;DHT22;65507;48.454;-2.058;2023-10-08T03:21:06;15.40;65.80
76613;DHT22;65507;48.454;-2.058;2023-10-08T03:23:48;15.40;65.80
76613;DHT22;65507;48.454;-2.058;2023-10-08T03:26:15;15.40;65.80
76613;DHT22;65507;48.454;-2.058;2023-10-08T03:28:56;15.40;65.80
76613;DHT22;65507;48.454;-2.058;2023-10-08T03:31:24;15.40;65.80
76613;DHT22;65507;48.454;-2.058;2023-10-08T03:34:08;15.40;65.90
76613;DHT22;65507;48.454;-2.058;2023-10-08T03:36:38;15.40;66.00
76613;DHT22;65507;48.454;-2.058;2023-10-08T03:39:18;15.40;66.00
76613;DHT22;65507;48.454;-2.058;2023-10-08T03:41:44;15.40;66.00
76613;DHT22;65507;48.454;-2.058;2023-10-08T03:44:29;15.40;66.00
76613;DHT22;65507;48.454;-2.058;2023-10-08T03:46:55;15.40;66.10
76613;DHT22;65507;48.454;-2.058;2023-10-08T03:49:22;15.40;66.00
76613;DHT22;65507;48.454;-2.058;2023-10-08T03:51:48;15.30;66.10
76613;DHT22;65507;48.454;-2.058;2023-10-08T03:54:20;15.30;66.20
76613;DHT22;65507;48.454;-2.058;2023-10-08T03:56:55;15.30;66.20
76613;DHT22;65507;48.454;-2.058;2023-10-08T03:59:21;15.20;66.30
76613;DHT22;65507;48.454;-2.058;2023-10-08T04:02:00;15.20;66.40
76613;DHT22;65507;48.454;-2.058;2023-10-08T04:04:46;15.20;66.50
76613;DHT22;65507;48.454;-2.058;2023-10-08T04:07:23;15.10;66.70
76613;DHT22;65507;48.454;-2.058;2023-10-08T04:09:59;15.10;66.70
76613;DHT22;65507;48.454;-2.058;2023-10-08T04:12:50;15.00;66.90
76613;DHT22;65507;48.454;-2.058;2023-10-08T04:15:18;14.90;67.00
76613;DHT22;65507;48.454;-2.058;2023-10-08T04:17:44;14.80;67.20
76613;DHT22;65507;48.454;-2.058;2023-10-08T04:20:10;14.80;67.20
76613;DHT22;65507;48.454;-2.058;2023-10-08T04:23:00;14.80;67.20
76613;DHT22;65507;48.454;-2.058;2023-10-08T04:25:26;14.70;67.20
76613;DHT22;65507;48.454;-2.058;2023-10-08T04:27:53;14.70;67.20
76613;DHT22;65507;48.454;-2.058;2023-10-08T04:30:19;14.70;67.20
76613;DHT22;65507;48.454;-2.058;2023-10-08T04:32:48;14.70;67.30
76613;DHT22;65507;48.454;-2.058;2023-10-08T04:35:18;14.70;67.30
76613;DHT22;65507;48.454;-2.058;2023-10-08T04:37:44;14.70;67.30
76613;DHT22;65507;48.454;-2.058;2023-10-08T04:40:16;14.60;67.20
76613;DHT22;65507;48.454;-2.058;2023-10-08T04:42:42;14.70;67.40
76613;DHT22;65507;48.454;-2.058;2023-10-08T04:45:11;14.60;67.40
76613;DHT22;65507;48.454;-2.058;2023-10-08T04:47:41;14.60;67.40
76613;DHT22;65507;48.454;-2.058;2023-10-08T04:50:08;14.60;67.20
76613;DHT22;65507;48.454;-2.058;2023-10-08T04:52:40;14.60;67.20
76613;DHT22;65507;48.454;-2.058;2023-10-08T04:55:11;14.60;67.20
76613;DHT22;65507;48.454;-2.058;2023-10-08T04:57:46;14.60;67.30
76613;DHT22;65507;48.454;-2.058;2023-10-08T05:00:14;14.50;67.20
76613;DHT22;65507;48.454;-2.058;2023-10-08T05:02:40;14.50;67.40
76613;DHT22;65507;48.454;-2.058;2023-10-08T05:05:15;14.50;67.50
76613;DHT22;65507;48.454;-2.058;2023-10-08T05:07:41;14.40;67.50
76613;DHT22;65507;48.454;-2.058;2023-10-08T05:10:15;14.50;67.40
76613;DHT22;65507;48.454;-2.058;2023-10-08T05:12:47;14.50;67.40
76613;DHT22;65507;48.454;-2.058;2023-10-08T05:15:26;14.50;67.40
76613;DHT22;65507;48.454;-2.058;2023-10-08T05:18:10;14.50;67.40
76613;DHT22;65507;48.454;-2.058;2023-10-08T05:20:48;14.50;67.30
76613;DHT22;65507;48.454;-2.058;2023-10-08T05:23:13;14.50;67.30
76613;DHT22;65507;48.454;-2.058;2023-10-08T05:25:55;14.40;67.30
76613;DHT22;65507;48.454;-2.058;2023-10-08T05:28:33;14.40;67.40
76613;DHT22;65507;48.454;-2.058;2023-10-08T05:31:08;14.40;67.50
76613;DHT22;65507;48.454;-2.058;2023-10-08T05:33:57;14.30;67.40
76613;DHT22;65507;48.454;-2.058;2023-10-08T05:36:28;14.30;67.50
76613;DHT22;65507;48.454;-2.058;2023-10-08T05:39:12;14.30;67.50
76613;DHT22;65507;48.454;-2.058;2023-10-08T05:41:50;14.30;67.40
76613;DHT22;65507;48.454;-2.058;2023-10-08T05:44:42;14.30;67.40
76613;DHT22;65507;48.454;-2.058;2023-10-08T05:47:26;14.30;67.40
76613;DHT22;65507;48.454;-2.058;2023-10-08T05:49:58;14.30;67.50
76613;DHT22;65507;48.454;-2.058;2023-10-08T05:52:45;14.30;67.50
76613;DHT22;65507;48.454;-2.058;2023-10-08T05:55:23;12.30;66.40
76613;DHT22;65507;48.454;-2.058;2023-10-08T05:57:52;14.20;67.50
76613;DHT22;65507;48.454;-2.058;2023-10-08T06:00:28;14.20;67.70
76613;DHT22;65507;48.454;-2.058;2023-10-08T06:03:00;14.10;67.80
76613;DHT22;65507;48.454;-2.058;2023-10-08T06:06:00;14.00;67.80
76613;DHT22;65507;48.454;-2.058;2023-10-08T06:08:38;14.00;68.10
76613;DHT22;65507;48.454;-2.058;2023-10-08T06:11:23;13.90;68.10
76613;DHT22;65507;48.454;-2.058;2023-10-08T06:14:14;13.90;68.20
76613;DHT22;65507;48.454;-2.058;2023-10-08T06:16:53;13.90;68.20
76613;DHT22;65507;48.454;-2.058;2023-10-08T06:19:39;13.80;68.30
76613;DHT22;65507;48.454;-2.058;2023-10-08T06:22:04;13.80;68.30
76613;DHT22;65507;48.454;-2.058;2023-10-08T06:24:30;13.90;68.30
76613;DHT22;65507;48.454;-2.058;2023-10-08T06:26:58;13.90;68.10
76613;DHT22;65507;48.454;-2.058;2023-10-08T06:29:30;13.90;68.10
76613;DHT22;65507;48.454;-2.058;2023-10-08T06:31:57;13.90;68.00
76613;DHT22;65507;48.454;-2.058;2023-10-08T06:34:27;13.90;67.90
76613;DHT22;65507;48.454;-2.058;2023-10-08T06:36:53;13.90;67.80
76613;DHT22;65507;48.454;-2.058;2023-10-08T06:39:22;13.90;67.80
76613;DHT22;65507;48.454;-2.058;2023-10-08T06:41:52;14.00;67.80
76613;DHT22;65507;48.454;-2.058;2023-10-08T06:44:17;14.00;67.70
76613;DHT22;65507;48.454;-2.058;2023-10-08T06:46:43;14.00;67.60
76613;DHT22;65507;48.454;-2.058;2023-10-08T06:49:09;14.10;67.60
76613;DHT22;65507;48.454;-2.058;2023-10-08T06:51:38;14.10;67.40
76613;DHT22;65507;48.454;-2.058;2023-10-08T06:54:04;14.20;67.30
76613;DHT22;65507;48.454;-2.058;2023-10-08T06:56:29;14.20;67.30
76613;DHT22;65507;48.454;-2.058;2023-10-08T06:58:56;14.20;67.20
76613;DHT22;65507;48.454;-2.058;2023-10-08T07:01:24;14.30;67.10
76613;DHT22;65507;48.454;-2.058;2023-10-08T07:03:50;14.40;67.20
76613;DHT22;65507;48.454;-2.058;2023-10-08T07:06:17;14.40;67.10
76613;DHT22;65507;48.454;-2.058;2023-10-08T07:08:51;14.40;67.00
76613;DHT22;65507;48.454;-2.058;2023-10-08T07:11:20;14.50;66.90
76613;DHT22;65507;48.454;-2.058;2023-10-08T07:13:46;14.60;66.80
76613;DHT22;65507;48.454;-2.058;2023-10-08T07:16:12;14.70;66.80
76613;DHT22;65507;48.454;-2.058;2023-10-08T07:18:38;14.70;66.70
76613;DHT22;65507;48.454;-2.058;2023-10-08T07:21:04;14.80;66.50
76613;DHT22;65507;48.454;-2.058;2023-10-08T07:23:37;14.90;66.50
76613;DHT22;65507;48.454;-2.058;2023-10-08T07:26:19;15.80;66.80
76613;DHT22;65507;48.454;-2.058;2023-10-08T07:28:49;15.10;66.40
76613;DHT22;65507;48.454;-2.058;2023-10-08T07:31:17;15.20;66.10
76613;DHT22;65507;48.454;-2.058;2023-10-08T07:33:43;15.30;65.90
76613;DHT22;65507;48.454;-2.058;2023-10-08T07:36:12;15.50;65.90
76613;DHT22;65507;48.454;-2.058;2023-10-08T07:38:40;15.50;65.70
76613;DHT22;65507;48.454;-2.058;2023-10-08T07:41:08;15.60;65.60
76613;DHT22;65507;48.454;-2.058;2023-10-08T07:43:34;15.70;65.50
76613;DHT22;65507;48.454;-2.058;2023-10-08T07:46:00;15.90;65.50
76613;DHT22;65507;48.454;-2.058;2023-10-08T07:48:26;16.00;65.50
76613;DHT22;65507;48.454;-2.058;2023-10-08T07:50:55;16.10;65.30
76613;DHT22;65507;48.454;-2.058;2023-10-08T07:53:22;16.20;65.10
76613;DHT22;65507;48.454;-2.058;2023-10-08T07:55:50;16.30;65.10
76613;DHT22;65507;48.454;-2.058;2023-10-08T07:58:15;16.40;65.00
76613;DHT22;65507;48.454;-2.058;2023-10-08T08:00:42;16.50;65.00
76613;DHT22;65507;48.454;-2.058;2023-10-08T08:03:07;16.50;64.80
76613;DHT22;65507;48.454;-2.058;2023-10-08T08:05:33;16.50;65.00
76613;DHT22;65507;48.454;-2.058;2023-10-08T08:07:59;16.60;65.10
76613;DHT22;65507;48.454;-2.058;2023-10-08T08:10:31;16.60;65.10
76613;DHT22;65507;48.454;-2.058;2023-10-08T08:13:03;16.70;64.90
76613;DHT22;65507;48.454;-2.058;2023-10-08T08:15:34;16.90;64.80
76613;DHT22;65507;48.454;-2.058;2023-10-08T08:18:01;17.00;64.50
76613;DHT22;65507;48.454;-2.058;2023-10-08T08:20:30;17.10;64.40
76613;DHT22;65507;48.454;-2.058;2023-10-08T08:23:07;17.20;64.20
76613;DHT22;65507;48.454;-2.058;2023-10-08T08:25:39;17.30;64.10
76613;DHT22;65507;48.454;-2.058;2023-10-08T08:28:11;17.50;64.10
76613;DHT22;65507;48.454;-2.058;2023-10-08T08:30:43;17.60;64.00
76613;DHT22;65507;48.454;-2.058;2023-10-08T08:33:14;17.70;63.90
76613;DHT22;65507;48.454;-2.058;2023-10-08T08:35:47;17.90;63.70
76613;DHT22;65507;48.454;-2.058;2023-10-08T08:38:22;18.00;63.60
76613;DHT22;65507;48.454;-2.058;2023-10-08T08:40:49;18.10;63.50
76613;DHT22;65507;48.454;-2.058;2023-10-08T08:43:15;18.20;63.40
76613;DHT22;65507;48.454;-2.058;2023-10-08T08:45:42;18.30;63.50
76613;DHT22;65507;48.454;-2.058;2023-10-08T08:48:08;18.40;63.40
76613;DHT22;65507;48.454;-2.058;2023-10-08T08:50:34;18.50;63.30
76613;DHT22;65507;48.454;-2.058;2023-10-08T08:53:00;18.60;63.50
76613;DHT22;65507;48.454;-2.058;2023-10-08T08:55:25;18.60;63.50
76613;DHT22;65507;48.454;-2.058;2023-10-08T08:57:53;18.60;63.40
76613;DHT22;65507;48.454;-2.058;2023-10-08T09:00:19;18.70;63.50
76613;DHT22;65507;48.454;-2.058;2023-10-08T09:02:45;18.80;63.50
76613;DHT22;65507;48.454;-2.058;2023-10-08T09:05:12;18.90;63.40
76613;DHT22;65507;48.454;-2.058;2023-10-08T09:07:56;19.00;63.40
76613;DHT22;65507;48.454;-2.058;2023-10-08T09:10:22;19.10;63.20
76613;DHT22;65507;48.454;-2.058;2023-10-08T09:12:52;19.20;63.20
76613;DHT22;65507;48.454;-2.058;2023-10-08T09:15:19;19.20;63.10
76613;DHT22;65507;48.454;-2.058;2023-10-08T09:17:45;19.30;63.00
76613;DHT22;65507;48.454;-2.058;2023-10-08T09:20:11;19.40;63.00
76613;DHT22;65507;48.454;-2.058;2023-10-08T09:22:37;19.50;63.10
76613;DHT22;65507;48.454;-2.058;2023-10-08T09:25:03;19.50;63.10
76613;DHT22;65507;48.454;-2.058;2023-10-08T09:27:32;19.70;63.00
76613;DHT22;65507;48.454;-2.058;2023-10-08T09:29:58;19.80;62.90
76613;DHT22;65507;48.454;-2.058;2023-10-08T09:32:24;19.90;62.80
76613;DHT22;65507;48.454;-2.058;2023-10-08T09:34:51;20.00;62.70
76613;DHT22;65507;48.454;-2.058;2023-10-08T09:37:17;21.10;63.10
76613;DHT22;65507;48.454;-2.058;2023-10-08T09:39:47;20.20;62.40
76613;DHT22;65507;48.454;-2.058;2023-10-08T09:42:14;20.30;62.40
76613;DHT22;65507;48.454;-2.058;2023-10-08T09:44:40;20.40;62.40
76613;DHT22;65507;48.454;-2.058;2023-10-08T09:47:06;20.50;62.40
76613;DHT22;65507;48.454;-2.058;2023-10-08T09:49:39;20.60;62.30
76613;DHT22;65507;48.454;-2.058;2023-10-08T09:52:07;20.70;62.30
76613;DHT22;65507;48.454;-2.058;2023-10-08T09:54:37;20.80;62.30
76613;DHT22;65507;48.454;-2.058;2023-10-08T09:57:07;20.90;62.10
76613;DHT22;65507;48.454;-2.058;2023-10-08T09:59:35;21.00;62.20
76613;DHT22;65507;48.454;-2.058;2023-10-08T10:02:03;21.00;62.00
76613;DHT22;65507;48.454;-2.058;2023-10-08T10:04:30;21.10;61.90
76613;DHT22;65507;48.454;-2.058;2023-10-08T10:06:57;21.20;61.80
76613;DHT22;65507;48.454;-2.058;2023-10-08T10:09:26;21.30;62.70
76613;DHT22;65507;48.454;-2.058;2023-10-08T10:11:52;21.40;61.70
76613;DHT22;65507;48.454;-2.058;2023-10-08T10:14:21;21.50;61.70
76613;DHT22;65507;48.454;-2.058;2023-10-08T10:19:34;21.70;61.30
76613;DHT22;65507;48.454;-2.058;2023-10-08T10:22:01;21.80;61.30
76613;DHT22;65507;48.454;-2.058;2023-10-08T10:24:37;21.80;61.40
76613;DHT22;65507;48.454;-2.058;2023-10-08T10:27:16;21.90;61.30
76613;DHT22;65507;48.454;-2.058;2023-10-08T10:29:43;22.00;61.40
76613;DHT22;65507;48.454;-2.058;2023-10-08T10:32:12;22.10;61.40
76613;DHT22;65507;48.454;-2.058;2023-10-08T10:34:41;22.20;61.20
76613;DHT22;65507;48.454;-2.058;2023-10-08T10:37:07;22.30;61.20
76613;DHT22;65507;48.454;-2.058;2023-10-08T10:39:51;22.30;61.10
76613;DHT22;65507;48.454;-2.058;2023-10-08T10:42:20;22.40;61.00
76613;DHT22;65507;48.454;-2.058;2023-10-08T10:44:46;22.50;60.90
76613;DHT22;65507;48.454;-2.058;2023-10-08T10:47:14;22.60;60.80
76613;DHT22;65507;48.454;-2.058;2023-10-08T10:49:40;22.70;60.80
76613;DHT22;65507;48.454;-2.058;2023-10-08T10:52:25;24.30;61.50
76613;DHT22;65507;48.454;-2.058;2023-10-08T10:55:01;22.80;60.60
76613;DHT22;65507;48.454;-2.058;2023-10-08T10:57:44;22.90;60.40
76613;DHT22;65507;48.454;-2.058;2023-10-08T11:00:10;23.00;60.40
76613;DHT22;65507;48.454;-2.058;2023-10-08T11:02:58;23.10;60.30
76613;DHT22;65507;48.454;-2.058;2023-10-08T11:05:51;23.20;60.20
76613;DHT22;65507;48.454;-2.058;2023-10-08T11:08:20;23.30;60.00
76613;DHT22;65507;48.454;-2.058;2023-10-08T11:10:48;23.40;60.00
76613;DHT22;65507;48.454;-2.058;2023-10-08T11:13:20;23.40;60.00
76613;DHT22;65507;48.454;-2.058;2023-10-08T11:15:47;23.50;60.00
76613;DHT22;65507;48.454;-2.058;2023-10-08T11:18:17;23.60;60.00
76613;DHT22;65507;48.454;-2.058;2023-10-08T11:20:43;23.60;60.00
76613;DHT22;65507;48.454;-2.058;2023-10-08T11:26:02;23.70;59.90
76613;DHT22;65507;48.454;-2.058;2023-10-08T11:31:00;23.90;59.60
76613;DHT22;65507;48.454;-2.058;2023-10-08T11:36:04;24.00;59.60
76613;DHT22;65507;48.454;-2.058;2023-10-08T11:38:41;24.10;59.50
76613;DHT22;65507;48.454;-2.058;2023-10-08T11:41:13;24.10;59.40
76613;DHT22;65507;48.454;-2.058;2023-10-08T11:43:49;24.10;59.20
76613;DHT22;65507;48.454;-2.058;2023-10-08T11:46:25;24.20;59.20
76613;DHT22;65507;48.454;-2.058;2023-10-08T11:48:54;24.20;59.30
76613;DHT22;65507;48.454;-2.058;2023-10-08T11:51:24;24.30;59.10
76613;DHT22;65507;48.454;-2.058;2023-10-08T11:53:50;24.40;59.10
76613;DHT22;65507;48.454;-2.058;2023-10-08T11:56:16;24.50;59.00
76613;DHT22;65507;48.454;-2.058;2023-10-08T11:58:43;24.50;59.00
76613;DHT22;65507;48.454;-2.058;2023-10-08T12:01:10;24.60;58.90
76613;DHT22;65507;48.454;-2.058;2023-10-08T12:03:43;24.60;58.80
76613;DHT22;65507;48.454;-2.058;2023-10-08T12:06:12;24.70;58.70
76613;DHT22;65507;48.454;-2.058;2023-10-08T12:08:41;24.80;58.60
76613;DHT22;65507;48.454;-2.058;2023-10-08T12:11:07;24.90;58.50
76613;DHT22;65507;48.454;-2.058;2023-10-08T12:13:40;24.90;58.40
76613;DHT22;65507;48.454;-2.058;2023-10-08T12:16:13;25.00;58.40
76613;DHT22;65507;48.454;-2.058;2023-10-08T12:18:44;25.10;58.20
76613;DHT22;65507;48.454;-2.058;2023-10-08T12:21:11;25.20;58.20
76613;DHT22;65507;48.454;-2.058;2023-10-08T12:23:40;25.30;59.10
76613;DHT22;65507;48.454;-2.058;2023-10-08T12:26:06;25.40;58.00
76613;DHT22;65507;48.454;-2.058;2023-10-08T12:28:35;25.50;57.90
76613;DHT22;65507;48.454;-2.058;2023-10-08T12:31:04;25.60;57.90
76613;DHT22;65507;48.454;-2.058;2023-10-08T12:33:30;25.60;57.80
76613;DHT22;65507;48.454;-2.058;2023-10-08T12:35:57;25.70;57.80
76613;DHT22;65507;48.454;-2.058;2023-10-08T12:38:23;25.80;57.70
76613;DHT22;65507;48.454;-2.058;2023-10-08T12:40:49;25.90;57.60
76613;DHT22;65507;48.454;-2.058;2023-10-08T12:43:24;25.90;57.50
76613;DHT22;65507;48.454;-2.058;2023-10-08T12:45:53;26.00;57.40
76613;DHT22;65507;48.454;-2.058;2023-10-08T12:48:23;26.10;57.40
76613;DHT22;65507;48.454;-2.058;2023-10-08T12:50:49;26.10;57.30
76613;DHT22;65507;48.454;-2.058;2023-10-08T12:53:28;26.10;57.20
76613;DHT22;65507;48.454;-2.058;2023-10-08T12:56:08;26.20;57.20
76613;DHT22;65507;48.454;-2.058;2023-10-08T12:58:40;26.20;57.20
76613;DHT22;65507;48.454;-2.058;2023-10-08T13:01:15;26.30;57.00
76613;DHT22;65507;48.454;-2.058;2023-10-08T13:03:43;26.30;57.00
76613;DHT22;65507;48.454;-2.058;2023-10-08T13:06:13;26.40;56.80
76613;DHT22;65507;48.454;-2.058;2023-10-08T13:08:48;26.40;56.90
76613;DHT22;65507;48.454;-2.058;2023-10-08T13:11:14;26.50;56.90
76613;DHT22;65507;48.454;-2.058;2023-10-08T13:13:40;26.50;56.80
76613;DHT22;65507;48.454;-2.058;2023-10-08T13:16:06;26.50;56.70
76613;DHT22;65507;48.454;-2.058;2023-10-08T13:18:35;26.60;56.80
76613;DHT22;65507;48.454;-2.058;2023-10-08T13:21:03;26.60;56.60
76613;DHT22;65507;48.454;-2.058;2023-10-08T13:23:29;26.60;56.40
76613;DHT22;65507;48.454;-2.058;2023-10-08T13:25:54;26.60;56.50
76613;DHT22;65507;48.454;-2.058;2023-10-08T13:28:21;26.70;56.60
76613;DHT22;65507;48.454;-2.058;2023-10-08T13:30:48;26.70;56.60
76613;DHT22;65507;48.454;-2.058;2023-10-08T13:33:20;26.80;56.50
76613;DHT22;65507;48.454;-2.058;2023-10-08T13:35:50;26.80;56.40
76613;DHT22;65507;48.454;-2.058;2023-10-08T13:38:20;26.90;56.50
76613;DHT22;65507;48.454;-2.058;2023-10-08T13:40:48;26.90;56.30
76613;DHT22;65507;48.454;-2.058;2023-10-08T13:43:34;27.00;56.20
76613;DHT22;65507;48.454;-2.058;2023-10-08T13:48:30;27.10;56.20
76613;DHT22;65507;48.454;-2.058;2023-10-08T13:50:59;29.10;57.90
76613;DHT22;65507;48.454;-2.058;2023-10-08T13:53:25;27.20;56.20
76613;DHT22;65507;48.454;-2.058;2023-10-08T13:55:58;27.30;56.30
76613;DHT22;65507;48.454;-2.058;2023-10-08T13:58:28;27.30;56.00
76613;DHT22;65507;48.454;-2.058;2023-10-08T14:00:56;27.30;56.10
76613;DHT22;65507;48.454;-2.058;2023-10-08T14:03:21;27.30;56.10
76613;DHT22;65507;48.454;-2.058;2023-10-08T14:05:47;27.30;56.10
76613;DHT22;65507;48.454;-2.058;2023-10-08T14:08:17;27.30;56.10
76613;DHT22;65507;48.454;-2.058;2023-10-08T14:10:43;27.40;56.10
76613;DHT22;65507;48.454;-2.058;2023-10-08T14:13:09;27.40;56.00
76613;DHT22;65507;48.454;-2.058;2023-10-08T14:15:34;27.40;56.00
76613;DHT22;65507;48.454;-2.058;2023-10-08T14:18:07;27.50;56.10
76613;DHT22;65507;48.454;-2.058;2023-10-08T14:20:33;27.50;56.00
76613;DHT22;65507;48.454;-2.058;2023-10-08T14:22:59;27.50;56.00
76613;DHT22;65507;48.454;-2.058;2023-10-08T14:25:27;27.60;56.00
76613;DHT22;65507;48.454;-2.058;2023-10-08T14:27:54;27.60;55.90
76613;DHT22;65507;48.454;-2.058;2023-10-08T14:30:30;27.60;55.90
76613;DHT22;65507;48.454;-2.058;2023-10-08T14:32:56;27.60;55.80
76613;DHT22;65507;48.454;-2.058;2023-10-08T14:35:23;27.60;55.80
76613;DHT22;65507;48.454;-2.058;2023-10-08T14:38:07;27.70;55.80
76613;DHT22;65507;48.454;-2.058;2023-10-08T14:40:51;27.70;55.70
76613;DHT22;65507;48.454;-2.058;2023-10-08T14:43:36;27.70;55.70
76613;DHT22;65507;48.454;-2.058;2023-10-08T14:46:03;27.70;55.70
76613;DHT22;65507;48.454;-2.058;2023-10-08T14:48:34;27.70;55.70
76613;DHT22;65507;48.454;-2.058;2023-10-08T14:51:05;27.80;55.70
76613;DHT22;65507;48.454;-2.058;2023-10-08T14:53:32;27.70;55.60
76613;DHT22;65507;48.454;-2.058;2023-10-08T14:56:00;27.70;55.50
76613;DHT22;65507;48.454;-2.058;2023-10-08T14:58:29;27.70;55.70
76613;DHT22;65507;48.454;-2.058;2023-10-08T15:00:55;27.60;55.70
76613;DHT22;65507;48.454;-2.058;2023-10-08T15:03:20;27.50;56.00
76613;DHT22;65507;48.454;-2.058;2023-10-08T15:05:46;27.40;56.20
76613;DHT22;65507;48.454;-2.058;2023-10-08T15:08:13;27.20;56.30
76613;DHT22;65507;48.454;-2.058;2023-10-08T15:10:40;27.10;56.50
76613;DHT22;65507;48.454;-2.058;2023-10-08T15:13:06;27.00;56.60
76613;DHT22;65507;48.454;-2.058;2023-10-08T15:15:32;26.90;56.70
76613;DHT22;65507;48.454;-2.058;2023-10-08T15:18:00;26.90;57.00
76613;DHT22;65507;48.454;-2.058;2023-10-08T15:20:27;26.80;57.00
76613;DHT22;65507;48.454;-2.058;2023-10-08T15:22:55;26.80;57.00
76613;DHT22;65507;48.454;-2.058;2023-10-08T15:25:21;26.70;56.90
76613;DHT22;65507;48.454;-2.058;2023-10-08T15:27:47;26.70;57.00
76613;DHT22;65507;48.454;-2.058;2023-10-08T15:30:18;26.70;57.10
76613;DHT22;65507;48.454;-2.058;2023-10-08T15:32:45;26.70;56.90
76613;DHT22;65507;48.454;-2.058;2023-10-08T15:35:13;26.60;56.80
76613;DHT22;65507;48.454;-2.058;2023-10-08T15:37:46;26.70;56.90
76613;DHT22;65507;48.454;-2.058;2023-10-08T15:40:11;26.60;56.80
76613;DHT22;65507;48.454;-2.058;2023-10-08T15:42:43;26.60;56.90
76613;DHT22;65507;48.454;-2.058;2023-10-08T15:45:09;26.50;56.80
76613;DHT22;65507;48.454;-2.058;2023-10-08T15:47:38;26.50;56.90